sensor_id;sensor_type;location;lat;lon;timestamp;P1;durP1;ratioP1;P2;durP2;ratioP2
80211;SDS011;70434;37.956;23.722;2023-07-13T00:01:50;16.40;;;12.63;;
80211;SDS011;70434;37.956;23.722;2023-07-13T00:04:20;20.77;;;12.95;;
80211;SDS011;70434;37.956;23.722;2023-07-13T00:06:48;17.00;;;13.10;;
80211;SDS011;70434;37.956;23.722;2023-07-13T00:09:15;20.80;;;12.73;;
80211;SDS011;70434;37.956;23.722;2023-07-13T00:11:42;16.70;;;13.10;;
80211;SDS011;70434;37.956;23.722;2023-07-13T00:14:09;16.73;;;12.52;;
80211;SDS011;70434;37.956;23.722;2023-07-13T00:16:36;21.52;;;13.52;;
80211;SDS011;70434;37.956;23.722;2023-07-13T00:19:06;15.45;;;13.23;;
80211;SDS011;70434;37.956;23.722;2023-07-13T00:21:32;16.65;;;12.38;;
80211;SDS011;70434;37.956;23.722;2023-07-13T00:23:58;19.45;;;12.93;;
80211;SDS011;70434;37.956;23.722;2023-07-13T00:26:24;16.02;;;12.93;;
80211;SDS011;70434;37.956;23.722;2023-07-13T00:28:50;16.08;;;12.57;;
80211;SDS011;70434;37.956;23.722;2023-07-13T00:31:16;23.80;;;12.95;;
80211;SDS011;70434;37.956;23.722;2023-07-13T00:33:42;17.05;;;12.85;;
80211;SDS011;70434;37.956;23.722;2023-07-13T00:36:09;18.60;;;12.57;;
80211;SDS011;70434;37.956;23.722;2023-07-13T00:38:35;21.83;;;13.65;;
80211;SDS011;70434;37.956;23.722;2023-07-13T00:41:02;20.42;;;13.88;;
80211;SDS011;70434;37.956;23.722;2023-07-13T00:43:29;20.95;;;13.70;;
80211;SDS011;70434;37.956;23.722;2023-07-13T00:48:31;20.63;;;13.20;;
80211;SDS011;70434;37.956;23.722;2023-07-13T00:50:59;24.23;;;14.00;;
80211;SDS011;70434;37.956;23.722;2023-07-13T00:53:27;18.45;;;13.25;;
80211;SDS011;70434;37.956;23.722;2023-07-13T00:55:56;20.42;;;13.63;;
80211;SDS011;70434;37.956;23.722;2023-07-13T00:58:23;19.52;;;13.50;;
80211;SDS011;70434;37.956;23.722;2023-07-13T01:00:51;17.88;;;13.80;;
80211;SDS011;70434;37.956;23.722;2023-07-13T01:03:17;20.17;;;13.43;;
80211;SDS011;70434;37.956;23.722;2023-07-13T01:05:44;23.10;;;13.70;;
80211;SDS011;70434;37.956;23.722;2023-07-13T01:08:14;17.42;;;12.88;;
80211;SDS011;70434;37.956;23.722;2023-07-13T01:10:40;18.55;;;13.65;;
80211;SDS011;70434;37.956;23.722;2023-07-13T01:13:15;16.92;;;12.90;;
80211;SDS011;70434;37.956;23.722;2023-07-13T01:15:44;17.50;;;13.55;;
80211;SDS011;70434;37.956;23.722;2023-07-13T01:18:14;21.20;;;13.50;;
80211;SDS011;70434;37.956;23.722;2023-07-13T01:20:59;17.55;;;13.52;;
80211;SDS011;70434;37.956;23.722;2023-07-13T01:23:26;17.55;;;12.60;;
80211;SDS011;70434;37.956;23.722;2023-07-13T01:25:53;14.65;;;12.55;;
80211;SDS011;70434;37.956;23.722;2023-07-13T01:28:20;16.08;;;12.48;;
80211;SDS011;70434;37.956;23.722;2023-07-13T01:30:47;18.25;;;13.40;;
80211;SDS011;70434;37.956;23.722;2023-07-13T01:33:14;19.63;;;12.98;;
80211;SDS011;70434;37.956;23.722;2023-07-13T01:35:41;14.55;;;12.90;;
80211;SDS011;70434;37.956;23.722;2023-07-13T01:38:08;17.90;;;12.18;;
80211;SDS011;70434;37.956;23.722;2023-07-13T01:40:35;17.27;;;11.88;;
80211;SDS011;70434;37.956;23.722;2023-07-13T01:43:02;15.98;;;13.05;;
80211;SDS011;70434;37.956;23.722;2023-07-13T01:45:31;16.42;;;12.30;;
80211;SDS011;70434;37.956;23.722;2023-07-13T01:47:57;16.75;;;12.65;;
80211;SDS011;70434;37.956;23.722;2023-07-13T01:50:23;17.42;;;11.45;;
80211;SDS011;70434;37.956;23.722;2023-07-13T01:52:50;20.92;;;11.32;;
80211;SDS011;70434;37.956;23.722;2023-07-13T01:55:16;19.70;;;11.90;;
80211;SDS011;70434;37.956;23.722;2023-07-13T01:57:42;15.13;;;11.68;;
80211;SDS011;70434;37.956;23.722;2023-07-13T02:00:08;16.02;;;11.15;;
80211;SDS011;70434;37.956;23.722;2023-07-13T02:02:36;16.15;;;11.20;;
80211;SDS011;70434;37.956;23.722;2023-07-13T02:05:01;16.48;;;11.88;;
80211;SDS011;70434;37.956;23.722;2023-07-13T02:07:27;15.38;;;11.57;;
80211;SDS011;70434;37.956;23.722;2023-07-13T02:09:53;14.55;;;11.95;;
80211;SDS011;70434;37.956;23.722;2023-07-13T02:12:21;20.23;;;12.43;;
80211;SDS011;70434;37.956;23.722;2023-07-13T02:14:47;18.05;;;12.13;;
80211;SDS011;70434;37.956;23.722;2023-07-13T02:17:13;18.48;;;12.27;;
80211;SDS011;70434;37.956;23.722;2023-07-13T02:19:39;18.38;;;12.70;;
80211;SDS011;70434;37.956;23.722;2023-07-13T02:22:05;13.65;;;11.07;;
80211;SDS011;70434;37.956;23.722;2023-07-13T02:24:31;18.45;;;11.90;;
80211;SDS011;70434;37.956;23.722;2023-07-13T02:26:57;16.83;;;12.32;;
80211;SDS011;70434;37.956;23.722;2023-07-13T02:29:23;16.85;;;12.68;;
80211;SDS011;70434;37.956;23.722;2023-07-13T02:31:48;15.52;;;11.80;;
80211;SDS011;70434;37.956;23.722;2023-07-13T02:34:14;16.85;;;11.52;;
80211;SDS011;70434;37.956;23.722;2023-07-13T02:36:40;17.00;;;12.68;;
80211;SDS011;70434;37.956;23.722;2023-07-13T02:39:06;18.88;;;12.48;;
80211;SDS011;70434;37.956;23.722;2023-07-13T02:41:31;19.83;;;12.13;;
80211;SDS011;70434;37.956;23.722;2023-07-13T02:44:02;16.30;;;11.45;;
80211;SDS011;70434;37.956;23.722;2023-07-13T02:46:32;14.30;;;11.93;;
80211;SDS011;70434;37.956;23.722;2023-07-13T02:48:59;16.10;;;12.88;;
80211;SDS011;70434;37.956;23.722;2023-07-13T02:51:25;16.23;;;12.00;;
80211;SDS011;70434;37.956;23.722;2023-07-13T02:53:51;20.92;;;11.20;;
80211;SDS011;70434;37.956;23.722;2023-07-13T02:56:18;17.17;;;12.23;;
80211;SDS011;70434;37.956;23.722;2023-07-13T02:58:47;21.88;;;12.45;;
80211;SDS011;70434;37.956;23.722;2023-07-13T03:01:13;17.70;;;11.55;;
80211;SDS011;70434;37.956;23.722;2023-07-13T03:03:46;15.82;;;12.07;;
80211;SDS011;70434;37.956;23.722;2023-07-13T03:06:13;14.98;;;11.88;;
80211;SDS011;70434;37.956;23.722;2023-07-13T03:08:40;15.30;;;13.02;;
80211;SDS011;70434;37.956;23.722;2023-07-13T03:11:07;17.58;;;13.23;;
80211;SDS011;70434;37.956;23.722;2023-07-13T03:13:39;15.80;;;12.52;;
80211;SDS011;70434;37.956;23.722;2023-07-13T03:16:06;20.27;;;15.70;;
80211;SDS011;70434;37.956;23.722;2023-07-13T03:18:32;16.23;;;12.93;;
80211;SDS011;70434;37.956;23.722;2023-07-13T03:20:58;15.40;;;12.30;;
80211;SDS011;70434;37.956;23.722;2023-07-13T03:23:24;16.30;;;12.55;;
80211;SDS011;70434;37.956;23.722;2023-07-13T03:26:00;15.93;;;11.98;;
80211;SDS011;70434;37.956;23.722;2023-07-13T03:28:38;17.23;;;12.60;;
80211;SDS011;70434;37.956;23.722;2023-07-13T03:31:09;15.05;;;12.55;;
80211;SDS011;70434;37.956;23.722;2023-07-13T03:33:40;15.30;;;12.57;;
80211;SDS011;70434;37.956;23.722;2023-07-13T03:36:07;23.70;;;14.13;;
80211;SDS011;70434;37.956;23.722;2023-07-13T03:38:34;19.35;;;13.65;;
80211;SDS011;70434;37.956;23.722;2023-07-13T03:41:03;16.17;;;13.05;;
80211;SDS011;70434;37.956;23.722;2023-07-13T03:43:28;17.77;;;12.95;;
80211;SDS011;70434;37.956;23.722;2023-07-13T03:45:55;19.02;;;12.63;;
80211;SDS011;70434;37.956;23.722;2023-07-13T03:48:23;18.52;;;13.23;;
80211;SDS011;70434;37.956;23.722;2023-07-13T03:50:50;17.00;;;13.07;;
80211;SDS011;70434;37.956;23.722;2023-07-13T03:53:16;22.67;;;13.05;;
80211;SDS011;70434;37.956;23.722;2023-07-13T03:55:42;19.85;;;13.10;;
80211;SDS011;70434;37.956;23.722;2023-07-13T04:00:56;22.80;;;13.13;;
80211;SDS011;70434;37.956;23.722;2023-07-13T04:03:22;21.73;;;13.73;;
80211;SDS011;70434;37.956;23.722;2023-07-13T04:05:49;20.65;;;12.93;;
80211;SDS011;70434;37.956;23.722;2023-07-13T04:08:14;20.98;;;13.32;;
80211;SDS011;70434;37.956;23.722;2023-07-13T04:10:40;21.80;;;14.48;;
80211;SDS011;70434;37.956;23.722;2023-07-13T04:13:07;21.83;;;13.50;;
80211;SDS011;70434;37.956;23.722;2023-07-13T04:15:32;20.90;;;13.25;;
80211;SDS011;70434;37.956;23.722;2023-07-13T04:17:58;22.02;;;12.88;;
80211;SDS011;70434;37.956;23.722;2023-07-13T04:20:24;24.33;;;13.40;;
80211;SDS011;70434;37.956;23.722;2023-07-13T04:22:51;19.52;;;13.23;;
80211;SDS011;70434;37.956;23.722;2023-07-13T04:25:18;23.58;;;14.23;;
80211;SDS011;70434;37.956;23.722;2023-07-13T04:27:44;20.45;;;15.15;;
80211;SDS011;70434;37.956;23.722;2023-07-13T04:30:10;20.05;;;13.50;;
80211;SDS011;70434;37.956;23.722;2023-07-13T04:32:36;18.40;;;13.25;;
80211;SDS011;70434;37.956;23.722;2023-07-13T04:35:01;17.00;;;13.23;;
80211;SDS011;70434;37.956;23.722;2023-07-13T04:37:27;21.90;;;14.35;;
80211;SDS011;70434;37.956;23.722;2023-07-13T04:39:54;18.05;;;13.45;;
80211;SDS011;70434;37.956;23.722;2023-07-13T04:42:20;17.58;;;13.05;;
80211;SDS011;70434;37.956;23.722;2023-07-13T04:44:49;17.83;;;13.40;;
80211;SDS011;70434;37.956;23.722;2023-07-13T04:47:15;18.92;;;13.38;;
80211;SDS011;70434;37.956;23.722;2023-07-13T04:49:42;17.65;;;13.95;;
80211;SDS011;70434;37.956;23.722;2023-07-13T04:52:07;17.90;;;13.50;;
80211;SDS011;70434;37.956;23.722;2023-07-13T04:54:34;19.35;;;13.55;;
80211;SDS011;70434;37.956;23.722;2023-07-13T04:57:00;22.25;;;14.13;;
80211;SDS011;70434;37.956;23.722;2023-07-13T04:59:26;20.85;;;13.70;;
80211;SDS011;70434;37.956;23.722;2023-07-13T05:01:52;18.10;;;13.05;;
80211;SDS011;70434;37.956;23.722;2023-07-13T05:04:18;16.52;;;13.60;;
80211;SDS011;70434;37.956;23.722;2023-07-13T05:06:44;23.55;;;14.43;;
80211;SDS011;70434;37.956;23.722;2023-07-13T05:09:10;17.85;;;13.30;;
80211;SDS011;70434;37.956;23.722;2023-07-13T05:11:37;19.08;;;14.00;;
80211;SDS011;70434;37.956;23.722;2023-07-13T05:14:03;17.08;;;13.85;;
80211;SDS011;70434;37.956;23.722;2023-07-13T05:16:29;21.25;;;14.98;;
80211;SDS011;70434;37.956;23.722;2023-07-13T05:18:54;21.13;;;13.82;;
80211;SDS011;70434;37.956;23.722;2023-07-13T05:21:20;25.20;;;15.75;;
80211;SDS011;70434;37.956;23.722;2023-07-13T05:23:46;26.50;;;15.43;;
80211;SDS011;70434;37.956;23.722;2023-07-13T05:26:12;23.88;;;15.25;;
80211;SDS011;70434;37.956;23.722;2023-07-13T05:28:38;23.50;;;16.30;;
80211;SDS011;70434;37.956;23.722;2023-07-13T05:31:04;20.17;;;15.30;;
80211;SDS011;70434;37.956;23.722;2023-07-13T05:33:32;21.05;;;15.48;;
80211;SDS011;70434;37.956;23.722;2023-07-13T05:35:58;24.10;;;15.50;;
80211;SDS011;70434;37.956;23.722;2023-07-13T05:38:25;23.23;;;14.60;;
80211;SDS011;70434;37.956;23.722;2023-07-13T05:40:53;21.83;;;14.43;;
80211;SDS011;70434;37.956;23.722;2023-07-13T05:43:20;27.02;;;15.80;;
80211;SDS011;70434;37.956;23.722;2023-07-13T05:45:46;19.48;;;14.73;;
80211;SDS011;70434;37.956;23.722;2023-07-13T05:48:12;25.35;;;15.10;;
80211;SDS011;70434;37.956;23.722;2023-07-13T05:50:38;30.27;;;16.35;;
80211;SDS011;70434;37.956;23.722;2023-07-13T05:53:04;25.63;;;16.00;;
80211;SDS011;70434;37.956;23.722;2023-07-13T05:55:30;32.72;;;20.23;;
80211;SDS011;70434;37.956;23.722;2023-07-13T05:57:56;29.60;;;18.45;;
80211;SDS011;70434;37.956;23.722;2023-07-13T06:00:23;23.35;;;15.30;;
80211;SDS011;70434;37.956;23.722;2023-07-13T06:02:49;22.20;;;15.55;;
80211;SDS011;70434;37.956;23.722;2023-07-13T06:05:15;27.17;;;16.70;;
80211;SDS011;70434;37.956;23.722;2023-07-13T06:07:41;24.75;;;16.85;;
80211;SDS011;70434;37.956;23.722;2023-07-13T06:10:07;28.77;;;16.20;;
80211;SDS011;70434;37.956;23.722;2023-07-13T06:12:33;21.55;;;15.85;;
80211;SDS011;70434;37.956;23.722;2023-07-13T06:14:59;29.15;;;19.80;;
80211;SDS011;70434;37.956;23.722;2023-07-13T06:17:25;28.90;;;17.75;;
80211;SDS011;70434;37.956;23.722;2023-07-13T06:19:51;27.83;;;16.90;;
80211;SDS011;70434;37.956;23.722;2023-07-13T06:22:16;25.13;;;16.38;;
80211;SDS011;70434;37.956;23.722;2023-07-13T06:24:42;26.58;;;16.15;;
80211;SDS011;70434;37.956;23.722;2023-07-13T06:27:08;33.28;;;16.33;;
80211;SDS011;70434;37.956;23.722;2023-07-13T06:29:34;27.88;;;15.57;;
80211;SDS011;70434;37.956;23.722;2023-07-13T06:31:59;34.50;;;15.95;;
80211;SDS011;70434;37.956;23.722;2023-07-13T06:34:25;28.83;;;16.73;;
80211;SDS011;70434;37.956;23.722;2023-07-13T06:36:51;42.25;;;17.63;;
80211;SDS011;70434;37.956;23.722;2023-07-13T06:39:17;36.42;;;16.00;;
80211;SDS011;70434;37.956;23.722;2023-07-13T06:41:42;26.83;;;16.48;;
80211;SDS011;70434;37.956;23.722;2023-07-13T06:44:08;31.90;;;15.75;;
80211;SDS011;70434;37.956;23.722;2023-07-13T06:46:34;27.73;;;17.58;;
80211;SDS011;70434;37.956;23.722;2023-07-13T06:48:59;29.23;;;16.45;;
80211;SDS011;70434;37.956;23.722;2023-07-13T06:51:25;23.63;;;15.10;;
80211;SDS011;70434;37.956;23.722;2023-07-13T06:53:51;34.10;;;16.10;;
80211;SDS011;70434;37.956;23.722;2023-07-13T06:56:17;26.38;;;15.75;;
80211;SDS011;70434;37.956;23.722;2023-07-13T06:58:43;21.75;;;14.27;;
80211;SDS011;70434;37.956;23.722;2023-07-13T07:01:09;23.42;;;14.32;;
80211;SDS011;70434;37.956;23.722;2023-07-13T07:03:34;34.08;;;15.55;;
80211;SDS011;70434;37.956;23.722;2023-07-13T07:06:02;18.92;;;14.30;;
80211;SDS011;70434;37.956;23.722;2023-07-13T07:08:42;21.85;;;15.07;;
80211;SDS011;70434;37.956;23.722;2023-07-13T07:11:14;20.55;;;14.35;;
80211;SDS011;70434;37.956;23.722;2023-07-13T07:13:45;22.35;;;15.30;;
80211;SDS011;70434;37.956;23.722;2023-07-13T07:16:11;18.85;;;14.38;;
80211;SDS011;70434;37.956;23.722;2023-07-13T07:18:36;18.63;;;14.75;;
80211;SDS011;70434;37.956;23.722;2023-07-13T07:21:02;23.75;;;14.43;;
80211;SDS011;70434;37.956;23.722;2023-07-13T07:23:28;21.73;;;13.98;;
80211;SDS011;70434;37.956;23.722;2023-07-13T07:25:54;18.45;;;13.85;;
80211;SDS011;70434;37.956;23.722;2023-07-13T07:28:20;25.70;;;14.38;;
80211;SDS011;70434;37.956;23.722;2023-07-13T07:30:46;20.67;;;14.13;;
80211;SDS011;70434;37.956;23.722;2023-07-13T07:33:12;22.83;;;14.05;;
80211;SDS011;70434;37.956;23.722;2023-07-13T07:35:38;22.00;;;14.15;;
80211;SDS011;70434;37.956;23.722;2023-07-13T07:38:04;18.42;;;14.05;;
80211;SDS011;70434;37.956;23.722;2023-07-13T07:40:31;18.85;;;14.40;;
80211;SDS011;70434;37.956;23.722;2023-07-13T07:43:02;19.27;;;15.40;;
80211;SDS011;70434;37.956;23.722;2023-07-13T07:45:28;17.50;;;14.00;;
80211;SDS011;70434;37.956;23.722;2023-07-13T07:47:56;19.92;;;14.10;;
80211;SDS011;70434;37.956;23.722;2023-07-13T07:50:26;21.23;;;15.55;;
80211;SDS011;70434;37.956;23.722;2023-07-13T07:52:53;18.98;;;14.20;;
80211;SDS011;70434;37.956;23.722;2023-07-13T07:55:21;22.65;;;14.52;;
80211;SDS011;70434;37.956;23.722;2023-07-13T07:57:47;20.52;;;14.27;;
80211;SDS011;70434;37.956;23.722;2023-07-13T08:00:13;23.42;;;16.08;;
80211;SDS011;70434;37.956;23.722;2023-07-13T08:02:40;20.10;;;14.25;;
80211;SDS011;70434;37.956;23.722;2023-07-13T08:05:06;20.60;;;14.88;;
80211;SDS011;70434;37.956;23.722;2023-07-13T08:07:33;21.45;;;15.02;;
80211;SDS011;70434;37.956;23.722;2023-07-13T08:09:59;23.35;;;15.15;;
80211;SDS011;70434;37.956;23.722;2023-07-13T08:12:25;26.65;;;15.65;;
80211;SDS011;70434;37.956;23.722;2023-07-13T08:14:51;18.83;;;14.52;;
80211;SDS011;70434;37.956;23.722;2023-07-13T08:17:22;21.13;;;14.25;;
80211;SDS011;70434;37.956;23.722;2023-07-13T08:19:48;20.02;;;14.88;;
80211;SDS011;70434;37.956;23.722;2023-07-13T08:22:16;21.13;;;14.48;;
80211;SDS011;70434;37.956;23.722;2023-07-13T08:24:41;21.52;;;14.85;;
80211;SDS011;70434;37.956;23.722;2023-07-13T08:27:08;22.75;;;14.23;;
80211;SDS011;70434;37.956;23.722;2023-07-13T08:29:34;23.00;;;14.05;;
80211;SDS011;70434;37.956;23.722;2023-07-13T08:31:59;18.35;;;13.85;;
80211;SDS011;70434;37.956;23.722;2023-07-13T08:34:25;22.75;;;15.15;;
80211;SDS011;70434;37.956;23.722;2023-07-13T08:36:51;18.63;;;14.02;;
80211;SDS011;70434;37.956;23.722;2023-07-13T08:39:17;19.15;;;14.38;;
80211;SDS011;70434;37.956;23.722;2023-07-13T08:41:44;20.40;;;14.38;;
80211;SDS011;70434;37.956;23.722;2023-07-13T08:44:19;24.20;;;14.25;;
80211;SDS011;70434;37.956;23.722;2023-07-13T08:47:09;26.17;;;14.50;;
80211;SDS011;70434;37.956;23.722;2023-07-13T08:49:37;19.42;;;14.40;;
80211;SDS011;70434;37.956;23.722;2023-07-13T08:52:46;18.25;;;15.32;;
80211;SDS011;70434;37.956;23.722;2023-07-13T08:55:05;18.67;;;13.77;;
80211;SDS011;70434;37.956;23.722;2023-07-13T08:58:05;16.10;;;13.50;;
80211;SDS011;70434;37.956;23.722;2023-07-13T09:00:48;17.85;;;13.75;;
80211;SDS011;70434;37.956;23.722;2023-07-13T09:03:23;19.02;;;13.82;;
80211;SDS011;70434;37.956;23.722;2023-07-13T09:16:21;19.60;;;13.80;;
80211;SDS011;70434;37.956;23.722;2023-07-13T09:18:48;22.05;;;14.18;;
80211;SDS011;70434;37.956;23.722;2023-07-13T09:21:22;15.73;;;13.35;;
80211;SDS011;70434;37.956;23.722;2023-07-13T09:23:53;16.90;;;13.90;;
80211;SDS011;70434;37.956;23.722;2023-07-13T09:26:22;20.05;;;14.48;;
80211;SDS011;70434;37.956;23.722;2023-07-13T09:28:50;18.45;;;13.52;;
80211;SDS011;70434;37.956;23.722;2023-07-13T09:31:23;22.27;;;13.68;;
80211;SDS011;70434;37.956;23.722;2023-07-13T09:34:02;22.58;;;14.13;;
80211;SDS011;70434;37.956;23.722;2023-07-13T09:36:33;20.67;;;13.80;;
80211;SDS011;70434;37.956;23.722;2023-07-13T09:41:37;19.85;;;13.98;;
80211;SDS011;70434;37.956;23.722;2023-07-13T09:44:16;21.58;;;14.40;;
80211;SDS011;70434;37.956;23.722;2023-07-13T09:46:54;17.60;;;14.10;;
80211;SDS011;70434;37.956;23.722;2023-07-13T09:49:28;17.65;;;13.95;;
80211;SDS011;70434;37.956;23.722;2023-07-13T09:52:04;15.88;;;13.05;;
80211;SDS011;70434;37.956;23.722;2023-07-13T09:54:35;17.77;;;13.75;;
80211;SDS011;70434;37.956;23.722;2023-07-13T09:57:03;17.02;;;13.68;;
80211;SDS011;70434;37.956;23.722;2023-07-13T09:59:40;16.77;;;12.75;;
80211;SDS011;70434;37.956;23.722;2023-07-13T10:02:43;17.10;;;13.20;;
80211;SDS011;70434;37.956;23.722;2023-07-13T10:05:03;19.17;;;14.05;;
80211;SDS011;70434;37.956;23.722;2023-07-13T10:07:41;18.40;;;14.55;;
80211;SDS011;70434;37.956;23.722;2023-07-13T10:10:18;17.65;;;13.85;;
80211;SDS011;70434;37.956;23.722;2023-07-13T10:12:48;19.73;;;13.85;;
80211;SDS011;70434;37.956;23.722;2023-07-13T10:15:17;16.30;;;13.75;;
80211;SDS011;70434;37.956;23.722;2023-07-13T10:17:53;17.73;;;13.10;;
80211;SDS011;70434;37.956;23.722;2023-07-13T10:20:23;15.23;;;12.77;;
80211;SDS011;70434;37.956;23.722;2023-07-13T10:22:54;18.67;;;13.32;;
80211;SDS011;70434;37.956;23.722;2023-07-13T10:25:31;19.17;;;14.00;;
80211;SDS011;70434;37.956;23.722;2023-07-13T10:30:44;15.63;;;13.05;;
80211;SDS011;70434;37.956;23.722;2023-07-13T10:33:12;20.80;;;13.00;;
80211;SDS011;70434;37.956;23.722;2023-07-13T10:35:40;18.33;;;13.15;;
80211;SDS011;70434;37.956;23.722;2023-07-13T10:38:12;16.30;;;12.15;;
80211;SDS011;70434;37.956;23.722;2023-07-13T10:43:40;17.70;;;13.25;;
80211;SDS011;70434;37.956;23.722;2023-07-13T10:46:10;16.52;;;13.23;;
80211;SDS011;70434;37.956;23.722;2023-07-13T10:48:40;18.08;;;12.80;;
80211;SDS011;70434;37.956;23.722;2023-07-13T10:51:08;21.42;;;13.38;;
80211;SDS011;70434;37.956;23.722;2023-07-13T10:53:36;15.85;;;12.27;;
80211;SDS011;70434;37.956;23.722;2023-07-13T10:58:39;18.23;;;12.38;;
80211;SDS011;70434;37.956;23.722;2023-07-13T11:01:08;15.15;;;12.05;;
80211;SDS011;70434;37.956;23.722;2023-07-13T11:06:40;16.83;;;12.32;;
80211;SDS011;70434;37.956;23.722;2023-07-13T11:18:11;15.65;;;12.60;;
80211;SDS011;70434;37.956;23.722;2023-07-13T11:20:32;16.20;;;12.00;;
80211;SDS011;70434;37.956;23.722;2023-07-13T11:25:38;17.40;;;12.50;;
80211;SDS011;70434;37.956;23.722;2023-07-13T11:28:06;16.55;;;12.77;;
80211;SDS011;70434;37.956;23.722;2023-07-13T11:33:17;16.45;;;12.30;;
80211;SDS011;70434;37.956;23.722;2023-07-13T11:41:14;19.48;;;12.30;;
80211;SDS011;70434;37.956;23.722;2023-07-13T11:43:44;15.43;;;12.85;;
80211;SDS011;70434;37.956;23.722;2023-07-13T11:46:19;14.50;;;12.43;;
80211;SDS011;70434;37.956;23.722;2023-07-13T11:48:50;13.70;;;11.88;;
80211;SDS011;70434;37.956;23.722;2023-07-13T11:51:19;17.58;;;12.23;;
80211;SDS011;70434;37.956;23.722;2023-07-13T11:53:49;20.45;;;12.77;;
80211;SDS011;70434;37.956;23.722;2023-07-13T11:56:16;13.70;;;11.27;;
80211;SDS011;70434;37.956;23.722;2023-07-13T11:58:43;15.77;;;11.70;;
80211;SDS011;70434;37.956;23.722;2023-07-13T12:01:15;14.68;;;11.40;;
80211;SDS011;70434;37.956;23.722;2023-07-13T12:03:46;15.30;;;11.90;;
80211;SDS011;70434;37.956;23.722;2023-07-13T12:06:46;13.25;;;10.50;;
80211;SDS011;70434;37.956;23.722;2023-07-13T12:09:12;17.23;;;11.23;;
80211;SDS011;70434;37.956;23.722;2023-07-13T12:11:41;12.05;;;10.82;;
80211;SDS011;70434;37.956;23.722;2023-07-13T12:14:14;17.90;;;11.70;;
80211;SDS011;70434;37.956;23.722;2023-07-13T12:16:41;17.05;;;11.70;;
80211;SDS011;70434;37.956;23.722;2023-07-13T12:19:14;13.23;;;11.32;;
80211;SDS011;70434;37.956;23.722;2023-07-13T12:21:44;15.90;;;11.52;;
80211;SDS011;70434;37.956;23.722;2023-07-13T12:24:15;16.55;;;12.23;;
80211;SDS011;70434;37.956;23.722;2023-07-13T12:26:42;15.40;;;11.82;;
80211;SDS011;70434;37.956;23.722;2023-07-13T12:29:11;15.57;;;11.98;;
80211;SDS011;70434;37.956;23.722;2023-07-13T12:31:42;16.65;;;12.07;;
80211;SDS011;70434;37.956;23.722;2023-07-13T12:34:16;14.55;;;11.88;;
80211;SDS011;70434;37.956;23.722;2023-07-13T12:36:56;14.07;;;11.05;;
80211;SDS011;70434;37.956;23.722;2023-07-13T12:39:34;14.13;;;11.52;;
80211;SDS011;70434;37.956;23.722;2023-07-13T12:44:50;16.77;;;12.05;;
80211;SDS011;70434;37.956;23.722;2023-07-13T12:47:22;14.65;;;11.77;;
80211;SDS011;70434;37.956;23.722;2023-07-13T12:49:50;13.48;;;11.55;;
80211;SDS011;70434;37.956;23.722;2023-07-13T12:52:30;16.13;;;12.00;;
80211;SDS011;70434;37.956;23.722;2023-07-13T12:57:41;17.45;;;11.60;;
80211;SDS011;70434;37.956;23.722;2023-07-13T13:02:54;13.82;;;11.20;;
80211;SDS011;70434;37.956;23.722;2023-07-13T13:05:21;14.38;;;11.60;;
80211;SDS011;70434;37.956;23.722;2023-07-13T13:07:50;16.02;;;11.68;;
80211;SDS011;70434;37.956;23.722;2023-07-13T13:10:16;16.10;;;11.63;;
80211;SDS011;70434;37.956;23.722;2023-07-13T13:12:42;15.35;;;12.32;;
80211;SDS011;70434;37.956;23.722;2023-07-13T13:15:08;14.88;;;11.23;;
80211;SDS011;70434;37.956;23.722;2023-07-13T13:17:36;15.88;;;11.10;;
80211;SDS011;70434;37.956;23.722;2023-07-13T13:20:13;13.98;;;10.95;;
80211;SDS011;70434;37.956;23.722;2023-07-13T13:22:41;12.88;;;10.98;;
80211;SDS011;70434;37.956;23.722;2023-07-13T13:25:09;16.40;;;10.55;;
80211;SDS011;70434;37.956;23.722;2023-07-13T13:27:36;14.68;;;11.45;;
80211;SDS011;70434;37.956;23.722;2023-07-13T13:30:02;19.98;;;12.63;;
80211;SDS011;70434;37.956;23.722;2023-07-13T13:32:28;16.27;;;10.98;;
80211;SDS011;70434;37.956;23.722;2023-07-13T13:34:54;17.05;;;11.10;;
80211;SDS011;70434;37.956;23.722;2023-07-13T13:37:21;15.13;;;10.10;;
80211;SDS011;70434;37.956;23.722;2023-07-13T13:39:48;13.23;;;9.60;;
80211;SDS011;70434;37.956;23.722;2023-07-13T13:42:15;17.98;;;10.20;;
80211;SDS011;70434;37.956;23.722;2023-07-13T13:44:41;15.73;;;10.77;;
80211;SDS011;70434;37.956;23.722;2023-07-13T13:47:13;13.23;;;10.18;;
80211;SDS011;70434;37.956;23.722;2023-07-13T13:49:53;13.27;;;10.23;;
80211;SDS011;70434;37.956;23.722;2023-07-13T13:52:18;14.95;;;10.63;;
80211;SDS011;70434;37.956;23.722;2023-07-13T13:54:44;13.30;;;10.00;;
80211;SDS011;70434;37.956;23.722;2023-07-13T13:57:10;12.95;;;10.05;;
80211;SDS011;70434;37.956;23.722;2023-07-13T13:59:37;12.65;;;10.55;;
80211;SDS011;70434;37.956;23.722;2023-07-13T14:02:11;11.82;;;9.13;;
80211;SDS011;70434;37.956;23.722;2023-07-13T14:04:59;15.40;;;11.05;;
80211;SDS011;70434;37.956;23.722;2023-07-13T14:07:28;12.13;;;9.55;;
80211;SDS011;70434;37.956;23.722;2023-07-13T14:09:58;11.27;;;9.35;;
80211;SDS011;70434;37.956;23.722;2023-07-13T14:12:26;14.40;;;10.32;;
80211;SDS011;70434;37.956;23.722;2023-07-13T14:14:54;12.20;;;10.15;;
80211;SDS011;70434;37.956;23.722;2023-07-13T14:17:23;13.40;;;9.85;;
80211;SDS011;70434;37.956;23.722;2023-07-13T14:19:52;12.95;;;10.00;;
80211;SDS011;70434;37.956;23.722;2023-07-13T14:22:22;14.52;;;10.82;;
80211;SDS011;70434;37.956;23.722;2023-07-13T14:24:53;14.65;;;10.60;;
80211;SDS011;70434;37.956;23.722;2023-07-13T14:27:20;14.23;;;10.38;;
80211;SDS011;70434;37.956;23.722;2023-07-13T14:29:46;13.60;;;10.35;;
80211;SDS011;70434;37.956;23.722;2023-07-13T14:32:12;13.02;;;9.95;;
80211;SDS011;70434;37.956;23.722;2023-07-13T14:34:38;13.80;;;11.25;;
80211;SDS011;70434;37.956;23.722;2023-07-13T14:37:05;13.60;;;10.32;;
80211;SDS011;70434;37.956;23.722;2023-07-13T14:39:37;12.02;;;9.75;;
80211;SDS011;70434;37.956;23.722;2023-07-13T14:42:03;11.73;;;10.52;;
80211;SDS011;70434;37.956;23.722;2023-07-13T14:44:30;14.18;;;10.05;;
80211;SDS011;70434;37.956;23.722;2023-07-13T14:46:59;12.63;;;11.10;;
80211;SDS011;70434;37.956;23.722;2023-07-13T14:49:30;15.40;;;11.05;;
80211;SDS011;70434;37.956;23.722;2023-07-13T14:51:59;15.63;;;11.80;;
80211;SDS011;70434;37.956;23.722;2023-07-13T14:54:29;13.70;;;11.40;;
80211;SDS011;70434;37.956;23.722;2023-07-13T14:56:57;16.15;;;11.57;;
80211;SDS011;70434;37.956;23.722;2023-07-13T14:59:23;16.25;;;12.07;;
80211;SDS011;70434;37.956;23.722;2023-07-13T15:01:49;19.77;;;12.35;;
80211;SDS011;70434;37.956;23.722;2023-07-13T15:04:15;14.82;;;11.75;;
80211;SDS011;70434;37.956;23.722;2023-07-13T15:06:53;14.30;;;11.90;;
80211;SDS011;70434;37.956;23.722;2023-07-13T15:09:20;12.48;;;10.38;;
80211;SDS011;70434;37.956;23.722;2023-07-13T15:11:46;11.85;;;10.55;;
80211;SDS011;70434;37.956;23.722;2023-07-13T15:14:12;15.70;;;11.90;;